sensor_id;sensor_type;location;lat;lon;timestamp;temperature;humidity
25554;DHT22;13446;50.926;5.332;2023-07-22T00:02:13;16.50;99.90
25554;DHT22;13446;50.926;5.332;2023-07-22T00:04:38;16.50;99.90
25554;DHT22;13446;50.926;5.332;2023-07-22T00:07:04;16.40;99.90
25554;DHT22;13446;50.926;5.332;2023-07-22T00:09:34;16.40;99.90
25554;DHT22;13446;50.926;5.332;2023-07-22T00:11:59;16.50;99.90
25554;DHT22;13446;50.926;5.332;2023-07-22T00:14:25;16.50;99.90
25554;DHT22;13446;50.926;5.332;2023-07-22T00:16:50;16.40;99.90
25554;DHT22;13446;50.926;5.332;2023-07-22T00:19:16;16.30;99.90
25554;DHT22;13446;50.926;5.332;2023-07-22T00:21:42;16.30;99.90
25554;DHT22;13446;50.926;5.332;2023-07-22T00:24:07;16.20;99.90
25554;DHT22;13446;50.926;5.332;2023-07-22T00:26:33;15.90;99.90
25554;DHT22;13446;50.926;5.332;2023-07-22T00:28:59;16.00;99.90
25554;DHT22;13446;50.926;5.332;2023-07-22T00:31:24;16.10;99.90
25554;DHT22;13446;50.926;5.332;2023-07-22T00:33:53;16.20;99.90
25554;DHT22;13446;50.926;5.332;2023-07-22T00:36:18;16.20;99.90
25554;DHT22;13446;50.926;5.332;2023-07-22T00:38:44;16.10;99.90
25554;DHT22;13446;50.926;5.332;2023-07-22T00:41:09;16.10;99.90
25554;DHT22;13446;50.926;5.332;2023-07-22T00:43:36;16.00;99.90
25554;DHT22;13446;50.926;5.332;2023-07-22T00:46:02;16.10;99.90
25554;DHT22;13446;50.926;5.332;2023-07-22T00:48:28;16.20;99.90
25554;DHT22;13446;50.926;5.332;2023-07-22T00:50:54;16.10;99.90
25554;DHT22;13446;50.926;5.332;2023-07-22T00:53:20;16.10;99.90
25554;DHT22;13446;50.926;5.332;2023-07-22T00:55:45;16.00;99.90
25554;DHT22;13446;50.926;5.332;2023-07-22T00:58:11;16.00;99.90
25554;DHT22;13446;50.926;5.332;2023-07-22T01:00:36;16.10;99.90
25554;DHT22;13446;50.926;5.332;2023-07-22T01:03:02;16.00;99.90
25554;DHT22;13446;50.926;5.332;2023-07-22T01:05:28;15.90;99.90
25554;DHT22;13446;50.926;5.332;2023-07-22T01:07:54;15.90;99.90
25554;DHT22;13446;50.926;5.332;2023-07-22T01:10:21;15.80;99.90
25554;DHT22;13446;50.926;5.332;2023-07-22T01:12:47;15.70;99.90
25554;DHT22;13446;50.926;5.332;2023-07-22T01:15:12;15.70;99.90
25554;DHT22;13446;50.926;5.332;2023-07-22T01:17:38;15.80;99.90
25554;DHT22;13446;50.926;5.332;2023-07-22T01:20:04;15.80;99.90
25554;DHT22;13446;50.926;5.332;2023-07-22T01:22:31;15.90;99.90
25554;DHT22;13446;50.926;5.332;2023-07-22T01:24:57;15.80;99.90
25554;DHT22;13446;50.926;5.332;2023-07-22T01:27:23;15.80;99.90
25554;DHT22;13446;50.926;5.332;2023-07-22T01:29:53;15.70;99.90
25554;DHT22;13446;50.926;5.332;2023-07-22T01:32:19;15.70;99.90
25554;DHT22;13446;50.926;5.332;2023-07-22T01:34:45;15.80;99.90
25554;DHT22;13446;50.926;5.332;2023-07-22T01:37:11;15.80;99.90
25554;DHT22;13446;50.926;5.332;2023-07-22T01:39:36;15.80;99.90
25554;DHT22;13446;50.926;5.332;2023-07-22T01:42:02;15.90;99.90
25554;DHT22;13446;50.926;5.332;2023-07-22T01:44:28;15.90;99.90
25554;DHT22;13446;50.926;5.332;2023-07-22T01:46:53;16.00;99.90
25554;DHT22;13446;50.926;5.332;2023-07-22T01:49:19;16.00;99.90
25554;DHT22;13446;50.926;5.332;2023-07-22T01:51:45;16.10;99.90
25554;DHT22;13446;50.926;5.332;2023-07-22T01:54:11;16.10;99.90
25554;DHT22;13446;50.926;5.332;2023-07-22T01:56:38;16.00;99.90
25554;DHT22;13446;50.926;5.332;2023-07-22T01:59:03;16.00;99.90
25554;DHT22;13446;50.926;5.332;2023-07-22T02:01:29;16.00;99.90
25554;DHT22;13446;50.926;5.332;2023-07-22T02:03:55;15.80;99.90
25554;DHT22;13446;50.926;5.332;2023-07-22T02:06:20;15.70;99.90
25554;DHT22;13446;50.926;5.332;2023-07-22T02:08:46;15.70;99.90
25554;DHT22;13446;50.926;5.332;2023-07-22T02:11:12;15.80;99.90
25554;DHT22;13446;50.926;5.332;2023-07-22T02:13:38;15.90;99.90
25554;DHT22;13446;50.926;5.332;2023-07-22T02:16:03;15.90;99.90
25554;DHT22;13446;50.926;5.332;2023-07-22T02:18:29;15.90;99.90
25554;DHT22;13446;50.926;5.332;2023-07-22T02:20:55;16.00;99.90
25554;DHT22;13446;50.926;5.332;2023-07-22T02:23:21;16.10;99.90
25554;DHT22;13446;50.926;5.332;2023-07-22T02:25:50;16.10;99.90
25554;DHT22;13446;50.926;5.332;2023-07-22T02:28:17;16.10;99.90
25554;DHT22;13446;50.926;5.332;2023-07-22T02:30:53;15.90;99.90
25554;DHT22;13446;50.926;5.332;2023-07-22T02:33:19;16.00;99.90
25554;DHT22;13446;50.926;5.332;2023-07-22T02:35:44;15.90;99.90
25554;DHT22;13446;50.926;5.332;2023-07-22T02:38:10;15.80;99.90
25554;DHT22;13446;50.926;5.332;2023-07-22T02:40:36;16.00;99.90
25554;DHT22;13446;50.926;5.332;2023-07-22T02:43:02;16.00;99.90
25554;DHT22;13446;50.926;5.332;2023-07-22T02:45:28;16.00;99.90
25554;DHT22;13446;50.926;5.332;2023-07-22T02:47:54;15.90;99.90
25554;DHT22;13446;50.926;5.332;2023-07-22T02:50:19;15.70;99.90
25554;DHT22;13446;50.926;5.332;2023-07-22T02:52:45;15.70;99.90
25554;DHT22;13446;50.926;5.332;2023-07-22T02:55:12;15.60;99.90
25554;DHT22;13446;50.926;5.332;2023-07-22T02:57:38;15.50;99.90
25554;DHT22;13446;50.926;5.332;2023-07-22T03:00:04;15.50;99.90
25554;DHT22;13446;50.926;5.332;2023-07-22T03:02:37;15.60;99.90
25554;DHT22;13446;50.926;5.332;2023-07-22T03:05:03;15.50;99.90
25554;DHT22;13446;50.926;5.332;2023-07-22T03:07:32;15.30;99.90
25554;DHT22;13446;50.926;5.332;2023-07-22T03:09:58;15.40;99.90
25554;DHT22;13446;50.926;5.332;2023-07-22T03:12:24;15.30;99.90
25554;DHT22;13446;50.926;5.332;2023-07-22T03:14:49;15.30;99.90
25554;DHT22;13446;50.926;5.332;2023-07-22T03:17:17;15.30;99.90
25554;DHT22;13446;50.926;5.332;2023-07-22T03:19:43;15.30;99.90
25554;DHT22;13446;50.926;5.332;2023-07-22T03:22:08;15.40;99.90
25554;DHT22;13446;50.926;5.332;2023-07-22T03:24:35;15.20;99.90
25554;DHT22;13446;50.926;5.332;2023-07-22T03:27:00;15.20;99.90
25554;DHT22;13446;50.926;5.332;2023-07-22T03:29:26;15.20;99.90
25554;DHT22;13446;50.926;5.332;2023-07-22T03:31:53;15.20;99.90
25554;DHT22;13446;50.926;5.332;2023-07-22T03:34:18;15.20;99.90
25554;DHT22;13446;50.926;5.332;2023-07-22T03:36:44;15.20;99.90
25554;DHT22;13446;50.926;5.332;2023-07-22T03:39:10;15.30;99.90
25554;DHT22;13446;50.926;5.332;2023-07-22T03:41:37;15.40;99.90
25554;DHT22;13446;50.926;5.332;2023-07-22T03:44:03;15.30;99.90
25554;DHT22;13446;50.926;5.332;2023-07-22T03:46:28;15.40;99.90
25554;DHT22;13446;50.926;5.332;2023-07-22T03:48:54;15.40;99.90
25554;DHT22;13446;50.926;5.332;2023-07-22T03:51:20;15.50;99.90
25554;DHT22;13446;50.926;5.332;2023-07-22T03:53:45;15.50;99.90
25554;DHT22;13446;50.926;5.332;2023-07-22T03:56:11;15.50;99.90
25554;DHT22;13446;50.926;5.332;2023-07-22T03:58:36;15.50;99.90
25554;DHT22;13446;50.926;5.332;2023-07-22T04:01:02;15.40;99.90
25554;DHT22;13446;50.926;5.332;2023-07-22T04:03:27;15.30;99.90
25554;DHT22;13446;50.926;5.332;2023-07-22T04:05:54;15.30;99.90
25554;DHT22;13446;50.926;5.332;2023-07-22T04:08:20;15.40;99.90
25554;DHT22;13446;50.926;5.332;2023-07-22T04:10:55;15.30;99.90
25554;DHT22;13446;50.926;5.332;2023-07-22T04:13:23;15.30;99.90
25554;DHT22;13446;50.926;5.332;2023-07-22T04:15:50;15.30;99.90
25554;DHT22;13446;50.926;5.332;2023-07-22T04:18:16;15.20;99.90
25554;DHT22;13446;50.926;5.332;2023-07-22T04:20:42;15.30;99.90
25554;DHT22;13446;50.926;5.332;2023-07-22T04:23:08;15.40;99.90
25554;DHT22;13446;50.926;5.332;2023-07-22T04:25:38;15.40;99.90
25554;DHT22;13446;50.926;5.332;2023-07-22T04:28:04;15.40;99.90
25554;DHT22;13446;50.926;5.332;2023-07-22T04:30:29;15.40;99.90
25554;DHT22;13446;50.926;5.332;2023-07-22T04:32:55;15.30;99.90
25554;DHT22;13446;50.926;5.332;2023-07-22T04:35:20;15.40;99.90
25554;DHT22;13446;50.926;5.332;2023-07-22T04:37:46;15.40;99.90
25554;DHT22;13446;50.926;5.332;2023-07-22T04:40:12;15.40;99.90
25554;DHT22;13446;50.926;5.332;2023-07-22T04:42:42;15.50;99.90
25554;DHT22;13446;50.926;5.332;2023-07-22T04:45:08;15.50;99.90
25554;DHT22;13446;50.926;5.332;2023-07-22T04:47:37;15.60;99.90
25554;DHT22;13446;50.926;5.332;2023-07-22T04:50:09;15.60;99.90
25554;DHT22;13446;50.926;5.332;2023-07-22T04:52:35;15.70;99.90
25554;DHT22;13446;50.926;5.332;2023-07-22T04:55:01;15.80;99.90
25554;DHT22;13446;50.926;5.332;2023-07-22T04:57:34;15.70;99.90
25554;DHT22;13446;50.926;5.332;2023-07-22T04:59:59;15.70;99.90
25554;DHT22;13446;50.926;5.332;2023-07-22T05:02:25;15.60;99.90
25554;DHT22;13446;50.926;5.332;2023-07-22T05:04:50;15.50;99.90
25554;DHT22;13446;50.926;5.332;2023-07-22T05:07:16;15.60;99.90
25554;DHT22;13446;50.926;5.332;2023-07-22T05:09:41;15.60;99.90
25554;DHT22;13446;50.926;5.332;2023-07-22T05:12:07;15.60;99.90
25554;DHT22;13446;50.926;5.332;2023-07-22T05:14:33;15.60;99.90
25554;DHT22;13446;50.926;5.332;2023-07-22T05:16:58;15.70;99.90
25554;DHT22;13446;50.926;5.332;2023-07-22T05:19:24;15.90;99.90
25554;DHT22;13446;50.926;5.332;2023-07-22T05:21:49;15.90;99.90
25554;DHT22;13446;50.926;5.332;2023-07-22T05:24:15;15.90;99.90
25554;DHT22;13446;50.926;5.332;2023-07-22T05:26:40;16.20;99.90
25554;DHT22;13446;50.926;5.332;2023-07-22T05:29:06;16.50;99.90
25554;DHT22;13446;50.926;5.332;2023-07-22T05:31:32;17.00;99.90
25554;DHT22;13446;50.926;5.332;2023-07-22T05:33:58;17.60;99.90
25554;DHT22;13446;50.926;5.332;2023-07-22T05:36:23;17.70;99.90
25554;DHT22;13446;50.926;5.332;2023-07-22T05:38:49;17.90;99.90
25554;DHT22;13446;50.926;5.332;2023-07-22T05:41:15;17.90;99.90
25554;DHT22;13446;50.926;5.332;2023-07-22T05:43:41;17.90;99.90
25554;DHT22;13446;50.926;5.332;2023-07-22T05:46:07;17.70;99.90
25554;DHT22;13446;50.926;5.332;2023-07-22T05:48:33;17.50;99.90
25554;DHT22;13446;50.926;5.332;2023-07-22T05:50:58;17.40;99.90
25554;DHT22;13446;50.926;5.332;2023-07-22T05:53:24;17.50;99.90
25554;DHT22;13446;50.926;5.332;2023-07-22T05:55:49;17.60;99.90
25554;DHT22;13446;50.926;5.332;2023-07-22T05:58:15;17.60;99.90
25554;DHT22;13446;50.926;5.332;2023-07-22T06:00:41;17.60;99.90
25554;DHT22;13446;50.926;5.332;2023-07-22T06:03:06;17.70;99.90
25554;DHT22;13446;50.926;5.332;2023-07-22T06:05:32;17.90;99.90
25554;DHT22;13446;50.926;5.332;2023-07-22T06:07:57;18.00;99.90
25554;DHT22;13446;50.926;5.332;2023-07-22T06:10:23;18.30;99.90
25554;DHT22;13446;50.926;5.332;2023-07-22T06:12:48;18.40;99.90
25554;DHT22;13446;50.926;5.332;2023-07-22T06:15:14;18.70;99.90
25554;DHT22;13446;50.926;5.332;2023-07-22T06:17:39;19.00;99.90
25554;DHT22;13446;50.926;5.332;2023-07-22T06:20:05;19.30;99.90
25554;DHT22;13446;50.926;5.332;2023-07-22T06:22:31;19.60;99.90
25554;DHT22;13446;50.926;5.332;2023-07-22T06:24:56;20.20;99.90
25554;DHT22;13446;50.926;5.332;2023-07-22T06:27:22;21.10;99.90
25554;DHT22;13446;50.926;5.332;2023-07-22T06:29:47;21.60;99.90
25554;DHT22;13446;50.926;5.332;2023-07-22T06:32:15;21.90;99.90
25554;DHT22;13446;50.926;5.332;2023-07-22T06:34:41;21.90;99.90
25554;DHT22;13446;50.926;5.332;2023-07-22T06:37:06;21.90;99.90
25554;DHT22;13446;50.926;5.332;2023-07-22T06:39:32;22.00;99.90
25554;DHT22;13446;50.926;5.332;2023-07-22T06:41:57;22.30;99.90
25554;DHT22;13446;50.926;5.332;2023-07-22T06:44:23;22.20;99.90
25554;DHT22;13446;50.926;5.332;2023-07-22T06:46:49;22.40;99.90
25554;DHT22;13446;50.926;5.332;2023-07-22T06:49:14;22.30;99.90
25554;DHT22;13446;50.926;5.332;2023-07-22T06:51:40;22.40;99.90
25554;DHT22;13446;50.926;5.332;2023-07-22T06:54:05;22.30;99.90
25554;DHT22;13446;50.926;5.332;2023-07-22T06:56:31;22.50;99.90
25554;DHT22;13446;50.926;5.332;2023-07-22T06:58:56;22.30;99.90
25554;DHT22;13446;50.926;5.332;2023-07-22T07:01:22;22.10;99.90
25554;DHT22;13446;50.926;5.332;2023-07-22T07:03:48;22.10;99.90
25554;DHT22;13446;50.926;5.332;2023-07-22T07:06:13;22.30;99.90
25554;DHT22;13446;50.926;5.332;2023-07-22T07:08:39;22.70;99.90
25554;DHT22;13446;50.926;5.332;2023-07-22T07:11:04;23.30;99.90
25554;DHT22;13446;50.926;5.332;2023-07-22T07:13:30;23.80;99.90
25554;DHT22;13446;50.926;5.332;2023-07-22T07:15:56;24.20;99.90
25554;DHT22;13446;50.926;5.332;2023-07-22T07:18:21;23.90;99.90
25554;DHT22;13446;50.926;5.332;2023-07-22T07:20:47;23.70;99.90
25554;DHT22;13446;50.926;5.332;2023-07-22T07:23:13;23.50;99.90
25554;DHT22;13446;50.926;5.332;2023-07-22T07:25:39;23.50;99.90
25554;DHT22;13446;50.926;5.332;2023-07-22T07:28:05;23.40;99.90
25554;DHT22;13446;50.926;5.332;2023-07-22T07:30:30;23.30;99.90
25554;DHT22;13446;50.926;5.332;2023-07-22T07:32:56;23.30;99.90
25554;DHT22;13446;50.926;5.332;2023-07-22T07:35:22;23.50;99.90
25554;DHT22;13446;50.926;5.332;2023-07-22T07:37:47;23.80;99.90
25554;DHT22;13446;50.926;5.332;2023-07-22T07:40:13;23.60;99.90
25554;DHT22;13446;50.926;5.332;2023-07-22T07:42:38;23.60;99.90
25554;DHT22;13446;50.926;5.332;2023-07-22T07:45:04;23.60;99.90
25554;DHT22;13446;50.926;5.332;2023-07-22T07:47:29;23.40;99.90
25554;DHT22;13446;50.926;5.332;2023-07-22T07:49:55;23.30;99.90
25554;DHT22;13446;50.926;5.332;2023-07-22T07:52:21;23.40;99.90
25554;DHT22;13446;50.926;5.332;2023-07-22T07:54:47;23.40;99.90
25554;DHT22;13446;50.926;5.332;2023-07-22T07:57:13;23.30;99.90
25554;DHT22;13446;50.926;5.332;2023-07-22T07:59:38;23.30;99.90
25554;DHT22;13446;50.926;5.332;2023-07-22T08:02:04;23.40;99.90
25554;DHT22;13446;50.926;5.332;2023-07-22T08:04:34;23.10;99.90
25554;DHT22;13446;50.926;5.332;2023-07-22T08:06:59;22.80;99.90
25554;DHT22;13446;50.926;5.332;2023-07-22T08:09:25;22.70;99.90
25554;DHT22;13446;50.926;5.332;2023-07-22T08:11:50;22.70;99.90
25554;DHT22;13446;50.926;5.332;2023-07-22T08:14:16;22.80;99.90
25554;DHT22;13446;50.926;5.332;2023-07-22T08:16:43;22.90;99.90
25554;DHT22;13446;50.926;5.332;2023-07-22T08:19:09;23.40;99.90
25554;DHT22;13446;50.926;5.332;2023-07-22T08:21:34;23.60;99.90
25554;DHT22;13446;50.926;5.332;2023-07-22T08:24:00;23.90;99.90
25554;DHT22;13446;50.926;5.332;2023-07-22T08:26:26;24.00;99.90
25554;DHT22;13446;50.926;5.332;2023-07-22T08:28:52;24.50;99.90
25554;DHT22;13446;50.926;5.332;2023-07-22T08:31:17;24.60;99.90
25554;DHT22;13446;50.926;5.332;2023-07-22T08:33:43;24.40;99.90
25554;DHT22;13446;50.926;5.332;2023-07-22T08:36:08;24.70;99.90
25554;DHT22;13446;50.926;5.332;2023-07-22T08:38:34;25.10;99.90
25554;DHT22;13446;50.926;5.332;2023-07-22T08:41:00;25.40;99.90
25554;DHT22;13446;50.926;5.332;2023-07-22T08:43:25;25.70;99.80
25554;DHT22;13446;50.926;5.332;2023-07-22T08:45:52;26.10;97.60
25554;DHT22;13446;50.926;5.332;2023-07-22T08:48:19;26.50;96.30
25554;DHT22;13446;50.926;5.332;2023-07-22T08:50:53;26.60;95.30
25554;DHT22;13446;50.926;5.332;2023-07-22T08:53:20;26.20;94.40
25554;DHT22;13446;50.926;5.332;2023-07-22T08:55:45;25.60;95.30
25554;DHT22;13446;50.926;5.332;2023-07-22T08:58:13;25.20;96.40
25554;DHT22;13446;50.926;5.332;2023-07-22T09:00:39;24.90;97.50
25554;DHT22;13446;50.926;5.332;2023-07-22T09:03:05;24.80;97.90
25554;DHT22;13446;50.926;5.332;2023-07-22T09:05:31;24.60;98.00
25554;DHT22;13446;50.926;5.332;2023-07-22T09:07:58;24.70;98.40
25554;DHT22;13446;50.926;5.332;2023-07-22T09:10:24;25.00;98.50
25554;DHT22;13446;50.926;5.332;2023-07-22T09:12:52;25.80;97.70
25554;DHT22;13446;50.926;5.332;2023-07-22T09:15:18;26.30;95.40
25554;DHT22;13446;50.926;5.332;2023-07-22T09:17:44;27.00;94.80
25554;DHT22;13446;50.926;5.332;2023-07-22T09:20:11;27.40;93.70
25554;DHT22;13446;50.926;5.332;2023-07-22T09:22:43;27.70;92.40
25554;DHT22;13446;50.926;5.332;2023-07-22T09:25:15;28.20;91.40
25554;DHT22;13446;50.926;5.332;2023-07-22T09:27:40;28.70;83.60
25554;DHT22;13446;50.926;5.332;2023-07-22T09:32:51;29.80;76.00
25554;DHT22;13446;50.926;5.332;2023-07-22T09:35:17;29.30;73.60
25554;DHT22;13446;50.926;5.332;2023-07-22T09:37:43;29.00;73.80
25554;DHT22;13446;50.926;5.332;2023-07-22T09:42:45;29.10;71.00
25554;DHT22;13446;50.926;5.332;2023-07-22T09:45:10;28.70;70.40
25554;DHT22;13446;50.926;5.332;2023-07-22T09:47:39;28.60;70.90
25554;DHT22;13446;50.926;5.332;2023-07-22T09:50:05;28.90;70.50
25554;DHT22;13446;50.926;5.332;2023-07-22T09:52:31;29.30;69.60
25554;DHT22;13446;50.926;5.332;2023-07-22T09:54:58;30.10;64.40
25554;DHT22;13446;50.926;5.332;2023-07-22T09:57:24;30.90;63.30
25554;DHT22;13446;50.926;5.332;2023-07-22T09:59:51;32.20;60.90
25554;DHT22;13446;50.926;5.332;2023-07-22T10:02:18;32.40;56.00
25554;DHT22;13446;50.926;5.332;2023-07-22T10:05:02;31.70;56.20
25554;DHT22;13446;50.926;5.332;2023-07-22T10:07:30;31.30;57.00
25554;DHT22;13446;50.926;5.332;2023-07-22T10:09:55;31.60;55.50
25554;DHT22;13446;50.926;5.332;2023-07-22T10:12:22;32.40;56.40
25554;DHT22;13446;50.926;5.332;2023-07-22T10:14:48;32.90;53.70
25554;DHT22;13446;50.926;5.332;2023-07-22T10:17:13;32.80;52.70
25554;DHT22;13446;50.926;5.332;2023-07-22T10:19:39;32.20;52.00
25554;DHT22;13446;50.926;5.332;2023-07-22T10:22:06;31.90;53.30
25554;DHT22;13446;50.926;5.332;2023-07-22T10:24:33;32.20;52.50
25554;DHT22;13446;50.926;5.332;2023-07-22T10:26:59;32.90;52.00
25554;DHT22;13446;50.926;5.332;2023-07-22T10:29:25;33.30;51.20
25554;DHT22;13446;50.926;5.332;2023-07-22T10:31:52;33.40;51.90
25554;DHT22;13446;50.926;5.332;2023-07-22T10:34:20;33.00;49.40
25554;DHT22;13446;50.926;5.332;2023-07-22T10:36:47;32.50;48.70
25554;DHT22;13446;50.926;5.332;2023-07-22T10:39:17;32.10;49.30
25554;DHT22;13446;50.926;5.332;2023-07-22T10:41:50;32.90;48.90
25554;DHT22;13446;50.926;5.332;2023-07-22T10:44:15;32.80;46.90
25554;DHT22;13446;50.926;5.332;2023-07-22T10:46:42;33.30;47.10
25554;DHT22;13446;50.926;5.332;2023-07-22T10:49:13;34.00;46.20
25554;DHT22;13446;50.926;5.332;2023-07-22T10:51:39;33.80;45.50
25554;DHT22;13446;50.926;5.332;2023-07-22T10:54:14;34.10;44.20
25554;DHT22;13446;50.926;5.332;2023-07-22T10:56:41;33.80;44.20
25554;DHT22;13446;50.926;5.332;2023-07-22T10:59:06;34.40;43.00
25554;DHT22;13446;50.926;5.332;2023-07-22T11:01:35;34.50;42.90
25554;DHT22;13446;50.926;5.332;2023-07-22T11:04:11;34.30;43.00
25554;DHT22;13446;50.926;5.332;2023-07-22T11:12:17;34.80;41.70
25554;DHT22;13446;50.926;5.332;2023-07-22T11:17:28;34.40;42.20
25554;DHT22;13446;50.926;5.332;2023-07-22T11:19:57;34.00;42.50
25554;DHT22;13446;50.926;5.332;2023-07-22T11:22:23;34.40;43.00
25554;DHT22;13446;50.926;5.332;2023-07-22T11:24:48;34.00;41.70
25554;DHT22;13446;50.926;5.332;2023-07-22T11:27:14;34.10;41.50
25554;DHT22;13446;50.926;5.332;2023-07-22T11:29:40;34.10;41.40
25554;DHT22;13446;50.926;5.332;2023-07-22T11:32:05;34.10;41.60
25554;DHT22;13446;50.926;5.332;2023-07-22T11:34:32;33.40;40.90
25554;DHT22;13446;50.926;5.332;2023-07-22T11:36:58;33.50;41.80
25554;DHT22;13446;50.926;5.332;2023-07-22T11:39:24;33.90;41.50
25554;DHT22;13446;50.926;5.332;2023-07-22T11:41:50;34.10;41.00
25554;DHT22;13446;50.926;5.332;2023-07-22T11:44:17;33.80;40.00
25554;DHT22;13446;50.926;5.332;2023-07-22T11:51:50;34.60;38.90
25554;DHT22;13446;50.926;5.332;2023-07-22T11:54:15;34.50;39.30
25554;DHT22;13446;50.926;5.332;2023-07-22T11:56:42;34.50;39.10
25554;DHT22;13446;50.926;5.332;2023-07-22T11:59:08;34.70;39.60
25554;DHT22;13446;50.926;5.332;2023-07-22T12:01:34;34.10;39.40
25554;DHT22;13446;50.926;5.332;2023-07-22T12:03:59;33.20;40.10
25554;DHT22;13446;50.926;5.332;2023-07-22T12:06:25;33.40;41.00
25554;DHT22;13446;50.926;5.332;2023-07-22T12:08:51;33.60;41.70
25554;DHT22;13446;50.926;5.332;2023-07-22T12:11:21;34.10;39.40
25554;DHT22;13446;50.926;5.332;2023-07-22T12:13:47;33.10;39.80
25554;DHT22;13446;50.926;5.332;2023-07-22T12:16:22;32.30;39.60
25554;DHT22;13446;50.926;5.332;2023-07-22T12:18:49;32.30;41.90
25554;DHT22;13446;50.926;5.332;2023-07-22T12:21:15;33.10;41.40
25554;DHT22;13446;50.926;5.332;2023-07-22T12:23:41;32.80;40.50
25554;DHT22;13446;50.926;5.332;2023-07-22T12:26:07;33.20;41.20
25554;DHT22;13446;50.926;5.332;2023-07-22T12:28:32;33.60;40.40
25554;DHT22;13446;50.926;5.332;2023-07-22T12:30:58;33.90;39.50
25554;DHT22;13446;50.926;5.332;2023-07-22T12:33:24;33.40;39.70
25554;DHT22;13446;50.926;5.332;2023-07-22T12:35:50;32.60;40.80
25554;DHT22;13446;50.926;5.332;2023-07-22T12:38:15;32.10;42.60
25554;DHT22;13446;50.926;5.332;2023-07-22T12:40:41;31.70;42.00
25554;DHT22;13446;50.926;5.332;2023-07-22T12:43:06;32.10;44.80
25554;DHT22;13446;50.926;5.332;2023-07-22T12:45:33;33.20;42.10
25554;DHT22;13446;50.926;5.332;2023-07-22T12:47:59;33.50;39.90
25554;DHT22;13446;50.926;5.332;2023-07-22T12:50:24;33.00;39.90
25554;DHT22;13446;50.926;5.332;2023-07-22T12:52:50;32.70;41.30
25554;DHT22;13446;50.926;5.332;2023-07-22T12:55:16;33.20;41.00
25554;DHT22;13446;50.926;5.332;2023-07-22T12:57:41;33.00;39.90
25554;DHT22;13446;50.926;5.332;2023-07-22T13:00:07;32.80;41.00
25554;DHT22;13446;50.926;5.332;2023-07-22T13:02:35;32.30;41.30
25554;DHT22;13446;50.926;5.332;2023-07-22T13:05:01;32.00;41.20
25554;DHT22;13446;50.926;5.332;2023-07-22T13:07:26;32.70;40.60
25554;DHT22;13446;50.926;5.332;2023-07-22T13:09:52;32.40;40.40
25554;DHT22;13446;50.926;5.332;2023-07-22T13:12:20;31.70;41.80
25554;DHT22;13446;50.926;5.332;2023-07-22T13:14:46;31.00;43.10
25554;DHT22;13446;50.926;5.332;2023-07-22T13:17:11;30.90;42.70
25554;DHT22;13446;50.926;5.332;2023-07-22T13:19:37;30.20;43.60
25554;DHT22;13446;50.926;5.332;2023-07-22T13:22:02;29.80;44.40
25554;DHT22;13446;50.926;5.332;2023-07-22T13:24:28;29.40;44.90
25554;DHT22;13446;50.926;5.332;2023-07-22T13:26:54;29.20;46.00
25554;DHT22;13446;50.926;5.332;2023-07-22T13:29:19;29.00;45.70
25554;DHT22;13446;50.926;5.332;2023-07-22T13:31:45;28.90;46.90
25554;DHT22;13446;50.926;5.332;2023-07-22T13:34:10;29.00;46.70
25554;DHT22;13446;50.926;5.332;2023-07-22T13:36:36;28.90;45.90
25554;DHT22;13446;50.926;5.332;2023-07-22T13:39:02;28.90;45.70
25554;DHT22;13446;50.926;5.332;2023-07-22T13:41:28;29.00;46.80
25554;DHT22;13446;50.926;5.332;2023-07-22T13:43:56;28.80;46.40
25554;DHT22;13446;50.926;5.332;2023-07-22T13:46:21;28.90;47.40
25554;DHT22;13446;50.926;5.332;2023-07-22T13:48:47;28.90;47.60
25554;DHT22;13446;50.926;5.332;2023-07-22T13:51:13;28.70;47.20
25554;DHT22;13446;50.926;5.332;2023-07-22T13:53:38;28.70;47.40
25554;DHT22;13446;50.926;5.332;2023-07-22T13:56:04;28.70;47.50
25554;DHT22;13446;50.926;5.332;2023-07-22T13:58:32;28.60;47.60
25554;DHT22;13446;50.926;5.332;2023-07-22T14:00:57;28.30;48.20
25554;DHT22;13446;50.926;5.332;2023-07-22T14:03:23;28.30;49.20
25554;DHT22;13446;50.926;5.332;2023-07-22T14:05:49;28.30;48.70
25554;DHT22;13446;50.926;5.332;2023-07-22T14:08:14;28.10;49.00
25554;DHT22;13446;50.926;5.332;2023-07-22T14:10:40;28.00;49.40
25554;DHT22;13446;50.926;5.332;2023-07-22T14:13:05;27.70;49.20
25554;DHT22;13446;50.926;5.332;2023-07-22T14:15:31;27.60;49.20
25554;DHT22;13446;50.926;5.332;2023-07-22T14:17:56;27.50;49.50
25554;DHT22;13446;50.926;5.332;2023-07-22T14:20:22;27.70;50.10
25554;DHT22;13446;50.926;5.332;2023-07-22T14:22:47;27.70;49.60
25554;DHT22;13446;50.926;5.332;2023-07-22T14:25:15;27.60;49.80
25554;DHT22;13446;50.926;5.332;2023-07-22T14:27:41;27.60;48.90
25554;DHT22;13446;50.926;5.332;2023-07-22T14:30:07;27.70;47.90
25554;DHT22;13446;50.926;5.332;2023-07-22T14:32:33;27.60;48.20
25554;DHT22;13446;50.926;5.332;2023-07-22T14:34:58;27.40;48.10
25554;DHT22;13446;50.926;5.332;2023-07-22T14:37:24;27.50;49.00
25554;DHT22;13446;50.926;5.332;2023-07-22T14:39:50;27.60;48.20
25554;DHT22;13446;50.926;5.332;2023-07-22T14:42:15;27.30;48.10
25554;DHT22;13446;50.926;5.332;2023-07-22T14:44:41;27.30;48.40
25554;DHT22;13446;50.926;5.332;2023-07-22T14:47:06;27.40;48.10
25554;DHT22;13446;50.926;5.332;2023-07-22T14:49:32;27.60;48.10
25554;DHT22;13446;50.926;5.332;2023-07-22T14:51:57;27.70;48.30
25554;DHT22;13446;50.926;5.332;2023-07-22T14:54:23;27.70;48.20
25554;DHT22;13446;50.926;5.332;2023-07-22T14:56:48;27.70;48.10
25554;DHT22;13446;50.926;5.332;2023-07-22T14:59:14;27.70;48.00
25554;DHT22;13446;50.926;5.332;2023-07-22T15:01:40;27.40;48.30
25554;DHT22;13446;50.926;5.332;2023-07-22T15:04:06;27.20;48.40
25554;DHT22;13446;50.926;5.332;2023-07-22T15:06:32;27.10;49.00
25554;DHT22;13446;50.926;5.332;2023-07-22T15:08:58;27.10;48.90
25554;DHT22;13446;50.926;5.332;2023-07-22T15:11:23;27.00;48.80
25554;DHT22;13446;50.926;5.332;2023-07-22T15:13:49;27.10;48.50
25554;DHT22;13446;50.926;5.332;2023-07-22T15:16:14;27.00;48.80
25554;DHT22;13446;50.926;5.332;2023-07-22T15:18:41;26.70;49.30
25554;DHT22;13446;50.926;5.332;2023-07-22T15:21:06;26.60;48.80
25554;DHT22;13446;50.926;5.332;2023-07-22T15:23:32;26.20;49.50
25554;DHT22;13446;50.926;5.332;2023-07-22T15:25:58;26.10;50.30
25554;DHT22;13446;50.926;5.332;2023-07-22T15:28:23;26.10;50.40
25554;DHT22;13446;50.926;5.332;2023-07-22T15:30:49;26.10;51.60
25554;DHT22;13446;50.926;5.332;2023-07-22T15:33:15;26.30;50.90
25554;DHT22;13446;50.926;5.332;2023-07-22T15:35:41;26.20;51.30
25554;DHT22;13446;50.926;5.332;2023-07-22T15:38:07;26.20;50.70
25554;DHT22;13446;50.926;5.332;2023-07-22T15:40:35;26.20;51.50
25554;DHT22;13446;50.926;5.332;2023-07-22T15:43:01;26.30;50.60